sensor_id;sensor_type;location;lat;lon;timestamp;P1;durP1;ratioP1;P2;durP2;ratioP2
13083;SDS011;6608;48.790;9.198;2023-04-03T00:02:11;108.43;;;51.67;;
13083;SDS011;6608;48.790;9.198;2023-04-03T00:04:37;111.83;;;52.97;;
13083;SDS011;6608;48.790;9.198;2023-04-03T00:07:03;112.53;;;53.33;;
13083;SDS011;6608;48.790;9.198;2023-04-03T00:09:30;115.63;;;53.37;;
13083;SDS011;6608;48.790;9.198;2023-04-03T00:11:56;114.37;;;54.43;;
13083;SDS011;6608;48.790;9.198;2023-04-03T00:14:23;110.90;;;53.03;;
13083;SDS011;6608;48.790;9.198;2023-04-03T00:16:50;109.33;;;52.57;;
13083;SDS011;6608;48.790;9.198;2023-04-03T00:19:17;112.27;;;53.90;;
13083;SDS011;6608;48.790;9.198;2023-04-03T00:21:43;112.63;;;54.37;;
13083;SDS011;6608;48.790;9.198;2023-04-03T00:24:10;110.07;;;52.60;;
13083;SDS011;6608;48.790;9.198;2023-04-03T00:26:36;111.43;;;52.77;;
13083;SDS011;6608;48.790;9.198;2023-04-03T00:29:03;111.93;;;53.03;;
13083;SDS011;6608;48.790;9.198;2023-04-03T00:31:29;109.63;;;52.70;;
13083;SDS011;6608;48.790;9.198;2023-04-03T00:33:57;110.60;;;53.03;;
13083;SDS011;6608;48.790;9.198;2023-04-03T00:36:24;110.40;;;53.20;;
13083;SDS011;6608;48.790;9.198;2023-04-03T00:38:51;111.77;;;53.07;;
13083;SDS011;6608;48.790;9.198;2023-04-03T00:41:18;109.27;;;51.03;;
13083;SDS011;6608;48.790;9.198;2023-04-03T00:43:45;106.33;;;50.53;;
13083;SDS011;6608;48.790;9.198;2023-04-03T00:46:11;106.00;;;50.23;;
13083;SDS011;6608;48.790;9.198;2023-04-03T00:48:38;108.33;;;50.63;;
13083;SDS011;6608;48.790;9.198;2023-04-03T00:51:08;107.13;;;50.63;;
13083;SDS011;6608;48.790;9.198;2023-04-03T00:53:37;109.20;;;50.70;;
13083;SDS011;6608;48.790;9.198;2023-04-03T00:56:05;112.43;;;54.00;;
13083;SDS011;6608;48.790;9.198;2023-04-03T00:58:33;109.90;;;53.03;;
13083;SDS011;6608;48.790;9.198;2023-04-03T01:01:03;114.00;;;53.73;;
13083;SDS011;6608;48.790;9.198;2023-04-03T01:03:31;110.77;;;53.47;;
13083;SDS011;6608;48.790;9.198;2023-04-03T01:05:57;110.43;;;52.90;;
13083;SDS011;6608;48.790;9.198;2023-04-03T01:08:25;110.57;;;52.93;;
13083;SDS011;6608;48.790;9.198;2023-04-03T01:10:51;109.87;;;53.13;;
13083;SDS011;6608;48.790;9.198;2023-04-03T01:13:19;113.90;;;52.67;;
13083;SDS011;6608;48.790;9.198;2023-04-03T01:15:46;111.20;;;53.43;;
13083;SDS011;6608;48.790;9.198;2023-04-03T01:18:12;108.63;;;52.40;;
13083;SDS011;6608;48.790;9.198;2023-04-03T01:23:46;112.80;;;53.67;;
13083;SDS011;6608;48.790;9.198;2023-04-03T01:26:16;110.27;;;52.33;;
13083;SDS011;6608;48.790;9.198;2023-04-03T01:28:42;110.07;;;52.80;;
13083;SDS011;6608;48.790;9.198;2023-04-03T01:31:12;111.03;;;53.17;;
13083;SDS011;6608;48.790;9.198;2023-04-03T01:33:41;108.67;;;52.73;;
13083;SDS011;6608;48.790;9.198;2023-04-03T01:36:13;111.97;;;53.70;;
13083;SDS011;6608;48.790;9.198;2023-04-03T01:38:40;108.73;;;52.73;;
13083;SDS011;6608;48.790;9.198;2023-04-03T01:41:06;110.33;;;52.97;;
13083;SDS011;6608;48.790;9.198;2023-04-03T01:43:33;110.90;;;53.03;;
13083;SDS011;6608;48.790;9.198;2023-04-03T01:45:59;108.37;;;52.27;;
13083;SDS011;6608;48.790;9.198;2023-04-03T01:48:25;109.60;;;52.80;;
13083;SDS011;6608;48.790;9.198;2023-04-03T01:50:53;109.80;;;52.90;;
13083;SDS011;6608;48.790;9.198;2023-04-03T01:53:20;109.07;;;52.80;;
13083;SDS011;6608;48.790;9.198;2023-04-03T01:55:46;110.07;;;53.23;;
13083;SDS011;6608;48.790;9.198;2023-04-03T01:58:13;109.07;;;52.73;;
13083;SDS011;6608;48.790;9.198;2023-04-03T02:00:39;109.07;;;52.37;;
13083;SDS011;6608;48.790;9.198;2023-04-03T02:03:06;109.43;;;53.27;;
13083;SDS011;6608;48.790;9.198;2023-04-03T02:05:32;108.77;;;52.53;;
13083;SDS011;6608;48.790;9.198;2023-04-03T02:08:00;108.60;;;52.40;;
13083;SDS011;6608;48.790;9.198;2023-04-03T02:10:26;108.70;;;52.83;;
13083;SDS011;6608;48.790;9.198;2023-04-03T02:12:53;110.13;;;53.37;;
13083;SDS011;6608;48.790;9.198;2023-04-03T02:15:19;110.00;;;52.83;;
13083;SDS011;6608;48.790;9.198;2023-04-03T02:17:46;110.07;;;52.03;;
13083;SDS011;6608;48.790;9.198;2023-04-03T02:20:12;109.43;;;52.37;;
13083;SDS011;6608;48.790;9.198;2023-04-03T02:22:38;110.23;;;53.30;;
13083;SDS011;6608;48.790;9.198;2023-04-03T02:25:07;109.07;;;52.60;;
13083;SDS011;6608;48.790;9.198;2023-04-03T02:27:33;108.03;;;52.53;;
13083;SDS011;6608;48.790;9.198;2023-04-03T02:30:00;108.83;;;52.87;;
13083;SDS011;6608;48.790;9.198;2023-04-03T02:32:26;109.73;;;53.17;;
13083;SDS011;6608;48.790;9.198;2023-04-03T02:34:53;108.23;;;52.60;;
13083;SDS011;6608;48.790;9.198;2023-04-03T02:37:19;109.43;;;52.60;;
13083;SDS011;6608;48.790;9.198;2023-04-03T02:39:45;106.80;;;52.27;;
13083;SDS011;6608;48.790;9.198;2023-04-03T02:42:13;106.87;;;52.00;;
13083;SDS011;6608;48.790;9.198;2023-04-03T02:44:40;109.13;;;53.13;;
13083;SDS011;6608;48.790;9.198;2023-04-03T02:47:06;108.17;;;51.73;;
13083;SDS011;6608;48.790;9.198;2023-04-03T02:49:32;107.90;;;52.40;;
13083;SDS011;6608;48.790;9.198;2023-04-03T02:51:59;108.67;;;52.27;;
13083;SDS011;6608;48.790;9.198;2023-04-03T02:54:25;107.87;;;52.10;;
13083;SDS011;6608;48.790;9.198;2023-04-03T02:56:53;108.20;;;52.90;;
13083;SDS011;6608;48.790;9.198;2023-04-03T02:59:21;107.40;;;52.37;;
13083;SDS011;6608;48.790;9.198;2023-04-03T03:01:47;108.43;;;52.83;;
13083;SDS011;6608;48.790;9.198;2023-04-03T03:04:14;108.77;;;52.90;;
13083;SDS011;6608;48.790;9.198;2023-04-03T03:06:40;108.40;;;53.20;;
13083;SDS011;6608;48.790;9.198;2023-04-03T03:09:07;108.47;;;52.90;;
13083;SDS011;6608;48.790;9.198;2023-04-03T03:11:33;110.07;;;53.63;;
13083;SDS011;6608;48.790;9.198;2023-04-03T03:14:00;109.50;;;52.90;;
13083;SDS011;6608;48.790;9.198;2023-04-03T03:16:28;108.73;;;52.37;;
13083;SDS011;6608;48.790;9.198;2023-04-03T03:18:54;108.87;;;52.47;;
13083;SDS011;6608;48.790;9.198;2023-04-03T03:21:20;108.17;;;52.30;;
13083;SDS011;6608;48.790;9.198;2023-04-03T03:23:47;109.80;;;53.43;;
13083;SDS011;6608;48.790;9.198;2023-04-03T03:26:13;107.67;;;52.07;;
13083;SDS011;6608;48.790;9.198;2023-04-03T03:28:40;109.30;;;53.50;;
13083;SDS011;6608;48.790;9.198;2023-04-03T03:31:07;109.17;;;53.10;;
13083;SDS011;6608;48.790;9.198;2023-04-03T03:33:35;107.53;;;52.40;;
13083;SDS011;6608;48.790;9.198;2023-04-03T03:36:01;106.13;;;50.73;;
13083;SDS011;6608;48.790;9.198;2023-04-03T03:38:28;108.63;;;52.33;;
13083;SDS011;6608;48.790;9.198;2023-04-03T03:40:54;108.33;;;52.33;;
13083;SDS011;6608;48.790;9.198;2023-04-03T03:43:20;108.67;;;52.93;;
13083;SDS011;6608;48.790;9.198;2023-04-03T03:45:49;107.07;;;51.83;;
13083;SDS011;6608;48.790;9.198;2023-04-03T03:48:15;108.93;;;52.50;;
13083;SDS011;6608;48.790;9.198;2023-04-03T03:50:43;108.13;;;52.53;;
13083;SDS011;6608;48.790;9.198;2023-04-03T03:53:10;107.73;;;52.60;;
13083;SDS011;6608;48.790;9.198;2023-04-03T03:55:36;110.57;;;53.03;;
13083;SDS011;6608;48.790;9.198;2023-04-03T03:58:02;108.00;;;52.33;;
13083;SDS011;6608;48.790;9.198;2023-04-03T04:00:29;109.33;;;53.10;;
13083;SDS011;6608;48.790;9.198;2023-04-03T04:02:56;109.67;;;53.30;;
13083;SDS011;6608;48.790;9.198;2023-04-03T04:05:22;108.80;;;52.60;;
13083;SDS011;6608;48.790;9.198;2023-04-03T04:07:50;108.13;;;53.00;;
13083;SDS011;6608;48.790;9.198;2023-04-03T04:10:17;108.83;;;53.20;;
13083;SDS011;6608;48.790;9.198;2023-04-03T04:12:43;109.83;;;53.47;;
13083;SDS011;6608;48.790;9.198;2023-04-03T04:15:10;109.30;;;53.07;;
13083;SDS011;6608;48.790;9.198;2023-04-03T04:17:36;108.80;;;53.23;;
13083;SDS011;6608;48.790;9.198;2023-04-03T04:20:03;107.10;;;52.37;;
13083;SDS011;6608;48.790;9.198;2023-04-03T04:22:30;108.57;;;52.70;;
13083;SDS011;6608;48.790;9.198;2023-04-03T04:24:57;109.57;;;52.63;;
13083;SDS011;6608;48.790;9.198;2023-04-03T04:27:24;108.53;;;53.33;;
13083;SDS011;6608;48.790;9.198;2023-04-03T04:29:50;106.90;;;52.13;;
13083;SDS011;6608;48.790;9.198;2023-04-03T04:32:17;108.27;;;52.63;;
13083;SDS011;6608;48.790;9.198;2023-04-03T04:34:43;110.47;;;54.00;;
13083;SDS011;6608;48.790;9.198;2023-04-03T04:37:09;108.53;;;52.77;;
13083;SDS011;6608;48.790;9.198;2023-04-03T04:39:36;106.53;;;51.53;;
13083;SDS011;6608;48.790;9.198;2023-04-03T04:42:04;109.80;;;53.13;;
13083;SDS011;6608;48.790;9.198;2023-04-03T04:44:32;108.97;;;52.50;;
13083;SDS011;6608;48.790;9.198;2023-04-03T04:46:58;109.87;;;52.80;;
13083;SDS011;6608;48.790;9.198;2023-04-03T04:49:24;108.23;;;52.63;;
13083;SDS011;6608;48.790;9.198;2023-04-03T04:51:51;109.50;;;53.17;;
13083;SDS011;6608;48.790;9.198;2023-04-03T04:54:17;108.97;;;52.67;;
13083;SDS011;6608;48.790;9.198;2023-04-03T04:56:44;108.87;;;52.70;;
13083;SDS011;6608;48.790;9.198;2023-04-03T04:59:12;108.00;;;52.50;;
13083;SDS011;6608;48.790;9.198;2023-04-03T05:01:38;109.47;;;53.73;;
13083;SDS011;6608;48.790;9.198;2023-04-03T05:04:05;110.07;;;52.70;;
13083;SDS011;6608;48.790;9.198;2023-04-03T05:06:31;109.13;;;53.30;;
13083;SDS011;6608;48.790;9.198;2023-04-03T05:09:00;108.87;;;52.90;;
13083;SDS011;6608;48.790;9.198;2023-04-03T05:11:26;108.27;;;53.00;;
13083;SDS011;6608;48.790;9.198;2023-04-03T05:13:52;114.30;;;55.40;;
13083;SDS011;6608;48.790;9.198;2023-04-03T05:16:20;110.07;;;53.20;;
13083;SDS011;6608;48.790;9.198;2023-04-03T05:18:47;108.63;;;52.77;;
13083;SDS011;6608;48.790;9.198;2023-04-03T05:21:13;108.87;;;52.30;;
13083;SDS011;6608;48.790;9.198;2023-04-03T05:23:40;108.77;;;53.03;;
13083;SDS011;6608;48.790;9.198;2023-04-03T05:26:06;108.17;;;52.50;;
13083;SDS011;6608;48.790;9.198;2023-04-03T05:28:33;110.47;;;53.27;;
13083;SDS011;6608;48.790;9.198;2023-04-03T05:30:59;117.10;;;57.80;;
13083;SDS011;6608;48.790;9.198;2023-04-03T05:33:27;117.07;;;60.10;;
13083;SDS011;6608;48.790;9.198;2023-04-03T05:35:53;111.23;;;54.23;;
13083;SDS011;6608;48.790;9.198;2023-04-03T05:38:20;109.60;;;53.23;;
13083;SDS011;6608;48.790;9.198;2023-04-03T05:40:47;113.07;;;56.23;;
13083;SDS011;6608;48.790;9.198;2023-04-03T05:43:13;108.30;;;51.73;;
13083;SDS011;6608;48.790;9.198;2023-04-03T05:45:39;110.53;;;53.10;;
13083;SDS011;6608;48.790;9.198;2023-04-03T05:48:06;108.37;;;53.37;;
13083;SDS011;6608;48.790;9.198;2023-04-03T05:50:34;109.87;;;53.27;;
13083;SDS011;6608;48.790;9.198;2023-04-03T05:53:01;107.77;;;52.10;;
13083;SDS011;6608;48.790;9.198;2023-04-03T05:55:28;114.00;;;54.40;;
13083;SDS011;6608;48.790;9.198;2023-04-03T05:57:54;109.50;;;52.83;;
13083;SDS011;6608;48.790;9.198;2023-04-03T06:00:21;109.43;;;53.43;;
13083;SDS011;6608;48.790;9.198;2023-04-03T06:02:47;107.90;;;52.67;;
13083;SDS011;6608;48.790;9.198;2023-04-03T06:05:14;112.20;;;54.47;;
13083;SDS011;6608;48.790;9.198;2023-04-03T06:07:42;111.20;;;54.17;;
13083;SDS011;6608;48.790;9.198;2023-04-03T06:10:10;109.53;;;52.73;;
13083;SDS011;6608;48.790;9.198;2023-04-03T06:12:37;110.03;;;53.00;;
13083;SDS011;6608;48.790;9.198;2023-04-03T06:15:04;109.93;;;53.70;;
13083;SDS011;6608;48.790;9.198;2023-04-03T06:17:30;108.73;;;52.83;;
13083;SDS011;6608;48.790;9.198;2023-04-03T06:19:57;109.57;;;53.10;;
13083;SDS011;6608;48.790;9.198;2023-04-03T06:22:23;109.57;;;53.60;;
13083;SDS011;6608;48.790;9.198;2023-04-03T06:24:52;111.03;;;54.40;;
13083;SDS011;6608;48.790;9.198;2023-04-03T06:27:18;110.30;;;53.60;;
13083;SDS011;6608;48.790;9.198;2023-04-03T06:29:45;112.37;;;55.10;;
13083;SDS011;6608;48.790;9.198;2023-04-03T06:32:11;109.43;;;53.83;;
13083;SDS011;6608;48.790;9.198;2023-04-03T06:34:37;110.67;;;54.10;;
13083;SDS011;6608;48.790;9.198;2023-04-03T06:37:04;111.33;;;54.33;;
13083;SDS011;6608;48.790;9.198;2023-04-03T06:39:30;110.60;;;53.97;;
13083;SDS011;6608;48.790;9.198;2023-04-03T06:41:59;109.00;;;52.50;;
13083;SDS011;6608;48.790;9.198;2023-04-03T06:44:25;109.87;;;53.23;;
13083;SDS011;6608;48.790;9.198;2023-04-03T06:46:52;110.00;;;53.60;;
13083;SDS011;6608;48.790;9.198;2023-04-03T06:49:19;111.03;;;54.00;;
13083;SDS011;6608;48.790;9.198;2023-04-03T06:51:46;111.57;;;53.83;;
13083;SDS011;6608;48.790;9.198;2023-04-03T06:54:12;114.27;;;55.77;;
13083;SDS011;6608;48.790;9.198;2023-04-03T06:56:39;112.67;;;54.93;;
13083;SDS011;6608;48.790;9.198;2023-04-03T06:59:09;130.57;;;62.97;;
13083;SDS011;6608;48.790;9.198;2023-04-03T07:01:35;114.30;;;53.87;;
13083;SDS011;6608;48.790;9.198;2023-04-03T07:04:01;115.80;;;55.27;;
13083;SDS011;6608;48.790;9.198;2023-04-03T07:06:28;110.80;;;53.40;;
13083;SDS011;6608;48.790;9.198;2023-04-03T07:08:56;111.20;;;53.97;;
13083;SDS011;6608;48.790;9.198;2023-04-03T07:11:22;110.93;;;53.43;;
13083;SDS011;6608;48.790;9.198;2023-04-03T07:13:49;113.03;;;54.60;;
13083;SDS011;6608;48.790;9.198;2023-04-03T07:16:17;110.93;;;53.87;;
13083;SDS011;6608;48.790;9.198;2023-04-03T07:18:44;109.83;;;53.17;;
13083;SDS011;6608;48.790;9.198;2023-04-03T07:21:10;110.90;;;54.17;;
13083;SDS011;6608;48.790;9.198;2023-04-03T07:23:37;112.53;;;54.63;;
13083;SDS011;6608;48.790;9.198;2023-04-03T07:26:04;113.40;;;55.03;;
13083;SDS011;6608;48.790;9.198;2023-04-03T07:28:33;113.03;;;54.93;;
13083;SDS011;6608;48.790;9.198;2023-04-03T07:31:02;117.50;;;57.63;;
13083;SDS011;6608;48.790;9.198;2023-04-03T07:33:30;114.67;;;55.07;;
13083;SDS011;6608;48.790;9.198;2023-04-03T07:35:57;113.77;;;54.10;;
13083;SDS011;6608;48.790;9.198;2023-04-03T07:38:23;113.20;;;54.30;;
13083;SDS011;6608;48.790;9.198;2023-04-03T07:40:51;113.37;;;53.80;;
13083;SDS011;6608;48.790;9.198;2023-04-03T07:43:18;116.87;;;54.70;;
13083;SDS011;6608;48.790;9.198;2023-04-03T07:45:45;116.70;;;55.37;;
13083;SDS011;6608;48.790;9.198;2023-04-03T07:48:14;111.97;;;53.57;;
13083;SDS011;6608;48.790;9.198;2023-04-03T07:50:42;115.67;;;55.13;;
13083;SDS011;6608;48.790;9.198;2023-04-03T07:53:09;115.03;;;54.47;;
13083;SDS011;6608;48.790;9.198;2023-04-03T07:55:36;116.53;;;54.80;;
13083;SDS011;6608;48.790;9.198;2023-04-03T07:58:08;118.60;;;55.00;;
13083;SDS011;6608;48.790;9.198;2023-04-03T08:00:34;117.67;;;55.27;;
13083;SDS011;6608;48.790;9.198;2023-04-03T08:03:01;116.53;;;54.90;;
13083;SDS011;6608;48.790;9.198;2023-04-03T08:05:27;119.90;;;57.23;;
13083;SDS011;6608;48.790;9.198;2023-04-03T08:07:55;116.63;;;54.30;;
13083;SDS011;6608;48.790;9.198;2023-04-03T08:10:21;116.63;;;54.97;;
13083;SDS011;6608;48.790;9.198;2023-04-03T08:12:48;119.13;;;55.53;;
13083;SDS011;6608;48.790;9.198;2023-04-03T08:15:14;115.27;;;54.63;;
13083;SDS011;6608;48.790;9.198;2023-04-03T08:17:41;114.33;;;54.40;;
13083;SDS011;6608;48.790;9.198;2023-04-03T08:20:09;118.23;;;55.03;;
13083;SDS011;6608;48.790;9.198;2023-04-03T08:22:35;121.53;;;57.33;;
13083;SDS011;6608;48.790;9.198;2023-04-03T08:25:04;146.03;;;70.80;;
13083;SDS011;6608;48.790;9.198;2023-04-03T08:27:30;118.67;;;55.37;;
13083;SDS011;6608;48.790;9.198;2023-04-03T08:29:57;124.00;;;58.60;;
13083;SDS011;6608;48.790;9.198;2023-04-03T08:32:23;118.03;;;55.10;;
13083;SDS011;6608;48.790;9.198;2023-04-03T08:34:50;119.77;;;55.10;;
13083;SDS011;6608;48.790;9.198;2023-04-03T08:37:17;117.47;;;54.93;;
13083;SDS011;6608;48.790;9.198;2023-04-03T08:39:44;119.43;;;55.93;;
13083;SDS011;6608;48.790;9.198;2023-04-03T08:42:14;121.10;;;55.40;;
13083;SDS011;6608;48.790;9.198;2023-04-03T08:44:44;119.70;;;56.03;;
13083;SDS011;6608;48.790;9.198;2023-04-03T08:47:15;119.00;;;55.60;;
13083;SDS011;6608;48.790;9.198;2023-04-03T08:49:45;117.00;;;54.90;;
13083;SDS011;6608;48.790;9.198;2023-04-03T08:52:17;116.27;;;54.70;;
13083;SDS011;6608;48.790;9.198;2023-04-03T08:54:48;116.47;;;54.90;;
13083;SDS011;6608;48.790;9.198;2023-04-03T08:57:16;116.00;;;54.07;;
13083;SDS011;6608;48.790;9.198;2023-04-03T08:59:43;120.17;;;54.40;;
13083;SDS011;6608;48.790;9.198;2023-04-03T09:02:17;120.80;;;56.03;;
13083;SDS011;6608;48.790;9.198;2023-04-03T09:04:47;119.03;;;55.33;;
13083;SDS011;6608;48.790;9.198;2023-04-03T09:07:14;118.27;;;55.87;;
13083;SDS011;6608;48.790;9.198;2023-04-03T09:09:42;119.33;;;55.40;;
13083;SDS011;6608;48.790;9.198;2023-04-03T09:12:12;118.80;;;54.77;;
13083;SDS011;6608;48.790;9.198;2023-04-03T09:14:43;119.67;;;56.10;;
13083;SDS011;6608;48.790;9.198;2023-04-03T09:17:13;119.43;;;55.40;;
13083;SDS011;6608;48.790;9.198;2023-04-03T09:19:41;119.53;;;54.50;;
13083;SDS011;6608;48.790;9.198;2023-04-03T09:22:13;123.80;;;55.33;;
13083;SDS011;6608;48.790;9.198;2023-04-03T09:24:42;125.27;;;57.30;;
13083;SDS011;6608;48.790;9.198;2023-04-03T09:27:10;125.80;;;58.93;;
13083;SDS011;6608;48.790;9.198;2023-04-03T09:29:38;119.40;;;56.00;;
13083;SDS011;6608;48.790;9.198;2023-04-03T09:32:16;120.67;;;55.50;;
13083;SDS011;6608;48.790;9.198;2023-04-03T09:34:44;120.57;;;56.03;;
13083;SDS011;6608;48.790;9.198;2023-04-03T09:37:10;119.70;;;55.67;;
13083;SDS011;6608;48.790;9.198;2023-04-03T09:39:57;121.17;;;56.10;;
13083;SDS011;6608;48.790;9.198;2023-04-03T09:42:24;117.87;;;54.00;;
13083;SDS011;6608;48.790;9.198;2023-04-03T09:44:53;122.73;;;58.30;;
13083;SDS011;6608;48.790;9.198;2023-04-03T09:47:23;120.27;;;56.40;;
13083;SDS011;6608;48.790;9.198;2023-04-03T09:49:50;119.73;;;55.13;;
13083;SDS011;6608;48.790;9.198;2023-04-03T09:52:18;141.10;;;66.77;;
13083;SDS011;6608;48.790;9.198;2023-04-03T09:54:45;128.27;;;58.77;;
13083;SDS011;6608;48.790;9.198;2023-04-03T09:57:11;120.53;;;55.77;;
13083;SDS011;6608;48.790;9.198;2023-04-03T09:59:41;120.67;;;56.03;;
13083;SDS011;6608;48.790;9.198;2023-04-03T10:02:19;124.30;;;58.27;;
13083;SDS011;6608;48.790;9.198;2023-04-03T10:04:48;119.73;;;55.43;;
13083;SDS011;6608;48.790;9.198;2023-04-03T10:07:25;120.50;;;55.60;;
13083;SDS011;6608;48.790;9.198;2023-04-03T10:09:54;120.13;;;56.20;;
13083;SDS011;6608;48.790;9.198;2023-04-03T10:12:21;120.37;;;55.70;;
13083;SDS011;6608;48.790;9.198;2023-04-03T10:14:53;121.23;;;57.20;;
13083;SDS011;6608;48.790;9.198;2023-04-03T10:17:22;121.73;;;56.57;;
13083;SDS011;6608;48.790;9.198;2023-04-03T10:19:54;118.90;;;55.53;;
13083;SDS011;6608;48.790;9.198;2023-04-03T10:22:24;124.57;;;56.57;;
13083;SDS011;6608;48.790;9.198;2023-04-03T10:24:59;121.43;;;55.93;;
13083;SDS011;6608;48.790;9.198;2023-04-03T10:27:31;125.10;;;57.40;;
13083;SDS011;6608;48.790;9.198;2023-04-03T10:30:00;126.33;;;58.47;;
13083;SDS011;6608;48.790;9.198;2023-04-03T10:32:35;118.23;;;54.33;;
13083;SDS011;6608;48.790;9.198;2023-04-03T10:35:08;124.57;;;57.33;;
13083;SDS011;6608;48.790;9.198;2023-04-03T10:37:41;119.50;;;55.40;;
13083;SDS011;6608;48.790;9.198;2023-04-03T10:40:15;119.27;;;55.70;;
13083;SDS011;6608;48.790;9.198;2023-04-03T10:42:46;118.57;;;54.83;;
13083;SDS011;6608;48.790;9.198;2023-04-03T10:45:18;122.73;;;57.37;;
13083;SDS011;6608;48.790;9.198;2023-04-03T10:47:48;121.17;;;55.00;;
13083;SDS011;6608;48.790;9.198;2023-04-03T10:50:29;119.03;;;55.90;;
13083;SDS011;6608;48.790;9.198;2023-04-03T10:53:00;119.27;;;55.33;;
13083;SDS011;6608;48.790;9.198;2023-04-03T10:55:30;122.93;;;56.80;;
13083;SDS011;6608;48.790;9.198;2023-04-03T10:58:00;118.80;;;54.97;;
13083;SDS011;6608;48.790;9.198;2023-04-03T11:00:29;121.17;;;55.23;;
13083;SDS011;6608;48.790;9.198;2023-04-03T11:02:57;121.83;;;55.00;;
13083;SDS011;6608;48.790;9.198;2023-04-03T11:05:29;122.57;;;55.73;;
13083;SDS011;6608;48.790;9.198;2023-04-03T11:07:59;118.77;;;54.97;;
13083;SDS011;6608;48.790;9.198;2023-04-03T11:10:29;123.90;;;56.43;;
13083;SDS011;6608;48.790;9.198;2023-04-03T11:12:58;131.33;;;62.20;;
13083;SDS011;6608;48.790;9.198;2023-04-03T11:15:28;122.53;;;55.97;;
13083;SDS011;6608;48.790;9.198;2023-04-03T11:17:57;122.27;;;56.80;;
13083;SDS011;6608;48.790;9.198;2023-04-03T11:20:26;123.20;;;57.07;;
13083;SDS011;6608;48.790;9.198;2023-04-03T11:22:58;120.07;;;54.73;;
13083;SDS011;6608;48.790;9.198;2023-04-03T11:25:26;125.93;;;57.23;;
13083;SDS011;6608;48.790;9.198;2023-04-03T11:27:56;122.13;;;55.70;;
13083;SDS011;6608;48.790;9.198;2023-04-03T11:30:23;120.60;;;55.50;;
13083;SDS011;6608;48.790;9.198;2023-04-03T11:32:57;123.27;;;56.10;;
13083;SDS011;6608;48.790;9.198;2023-04-03T11:35:27;126.07;;;57.67;;
13083;SDS011;6608;48.790;9.198;2023-04-03T11:37:53;122.57;;;56.50;;
13083;SDS011;6608;48.790;9.198;2023-04-03T11:40:23;127.07;;;59.00;;
13083;SDS011;6608;48.790;9.198;2023-04-03T11:42:52;125.07;;;57.13;;
13083;SDS011;6608;48.790;9.198;2023-04-03T11:45:24;134.63;;;58.37;;
13083;SDS011;6608;48.790;9.198;2023-04-03T11:47:52;125.57;;;57.00;;
13083;SDS011;6608;48.790;9.198;2023-04-03T11:50:32;125.47;;;58.77;;
13083;SDS011;6608;48.790;9.198;2023-04-03T11:55:57;120.77;;;56.17;;
13083;SDS011;6608;48.790;9.198;2023-04-03T11:58:24;124.90;;;58.43;;
13083;SDS011;6608;48.790;9.198;2023-04-03T12:00:58;123.30;;;57.43;;
13083;SDS011;6608;48.790;9.198;2023-04-03T12:12:26;123.00;;;56.27;;
13083;SDS011;6608;48.790;9.198;2023-04-03T12:14:53;123.00;;;56.10;;
13083;SDS011;6608;48.790;9.198;2023-04-03T12:17:20;123.77;;;56.30;;
13083;SDS011;6608;48.790;9.198;2023-04-03T12:19:48;122.90;;;56.97;;
13083;SDS011;6608;48.790;9.198;2023-04-03T12:22:15;120.60;;;55.63;;
13083;SDS011;6608;48.790;9.198;2023-04-03T12:24:46;123.23;;;56.43;;
13083;SDS011;6608;48.790;9.198;2023-04-03T12:27:18;123.70;;;57.60;;
13083;SDS011;6608;48.790;9.198;2023-04-03T12:29:49;120.17;;;55.47;;
13083;SDS011;6608;48.790;9.198;2023-04-03T12:32:22;121.90;;;55.00;;
13083;SDS011;6608;48.790;9.198;2023-04-03T12:35:02;120.00;;;54.67;;
13083;SDS011;6608;48.790;9.198;2023-04-03T12:37:38;129.07;;;58.27;;
13083;SDS011;6608;48.790;9.198;2023-04-03T12:40:07;120.57;;;54.17;;
13083;SDS011;6608;48.790;9.198;2023-04-03T12:42:40;121.77;;;56.20;;
13083;SDS011;6608;48.790;9.198;2023-04-03T12:45:13;122.70;;;56.10;;
13083;SDS011;6608;48.790;9.198;2023-04-03T12:47:42;122.90;;;55.83;;
13083;SDS011;6608;48.790;9.198;2023-04-03T12:50:16;119.73;;;54.97;;
13083;SDS011;6608;48.790;9.198;2023-04-03T12:52:45;121.13;;;55.87;;
13083;SDS011;6608;48.790;9.198;2023-04-03T12:55:14;124.97;;;57.47;;
13083;SDS011;6608;48.790;9.198;2023-04-03T12:57:41;121.33;;;55.80;;
13083;SDS011;6608;48.790;9.198;2023-04-03T13:00:31;122.47;;;56.17;;
13083;SDS011;6608;48.790;9.198;2023-04-03T13:02:58;122.53;;;56.87;;
13083;SDS011;6608;48.790;9.198;2023-04-03T13:05:25;124.30;;;57.17;;
13083;SDS011;6608;48.790;9.198;2023-04-03T13:07:52;128.07;;;57.13;;
13083;SDS011;6608;48.790;9.198;2023-04-03T13:10:21;150.17;;;61.97;;
13083;SDS011;6608;48.790;9.198;2023-04-03T13:12:48;130.27;;;58.87;;
13083;SDS011;6608;48.790;9.198;2023-04-03T13:15:16;127.97;;;57.53;;
13083;SDS011;6608;48.790;9.198;2023-04-03T13:17:45;128.63;;;56.90;;
13083;SDS011;6608;48.790;9.198;2023-04-03T13:20:14;128.87;;;57.60;;
13083;SDS011;6608;48.790;9.198;2023-04-03T13:22:43;126.47;;;56.47;;
13083;SDS011;6608;48.790;9.198;2023-04-03T13:25:13;126.70;;;56.87;;
13083;SDS011;6608;48.790;9.198;2023-04-03T13:27:40;128.77;;;57.00;;
13083;SDS011;6608;48.790;9.198;2023-04-03T13:30:17;127.97;;;57.97;;
13083;SDS011;6608;48.790;9.198;2023-04-03T13:32:45;125.37;;;55.97;;
13083;SDS011;6608;48.790;9.198;2023-04-03T13:35:25;127.27;;;57.33;;
13083;SDS011;6608;48.790;9.198;2023-04-03T13:37:54;125.43;;;56.23;;
13083;SDS011;6608;48.790;9.198;2023-04-03T13:40:20;126.20;;;55.67;;
13083;SDS011;6608;48.790;9.198;2023-04-03T13:42:48;126.93;;;57.27;;
13083;SDS011;6608;48.790;9.198;2023-04-03T13:45:25;127.43;;;57.00;;
13083;SDS011;6608;48.790;9.198;2023-04-03T13:48:06;127.27;;;57.13;;
13083;SDS011;6608;48.790;9.198;2023-04-03T13:50:32;132.93;;;58.07;;
13083;SDS011;6608;48.790;9.198;2023-04-03T13:52:59;128.30;;;56.97;;
13083;SDS011;6608;48.790;9.198;2023-04-03T13:55:28;133.23;;;59.93;;
13083;SDS011;6608;48.790;9.198;2023-04-03T13:57:56;127.77;;;57.57;;
13083;SDS011;6608;48.790;9.198;2023-04-03T14:00:28;129.43;;;57.57;;
13083;SDS011;6608;48.790;9.198;2023-04-03T14:02:56;130.87;;;58.67;;
13083;SDS011;6608;48.790;9.198;2023-04-03T14:05:23;127.17;;;57.10;;
13083;SDS011;6608;48.790;9.198;2023-04-03T14:07:50;129.63;;;58.53;;
13083;SDS011;6608;48.790;9.198;2023-04-03T14:10:16;131.17;;;59.17;;
13083;SDS011;6608;48.790;9.198;2023-04-03T14:12:43;127.93;;;58.23;;
13083;SDS011;6608;48.790;9.198;2023-04-03T14:15:12;129.17;;;57.60;;
13083;SDS011;6608;48.790;9.198;2023-04-03T14:17:41;128.60;;;57.50;;
13083;SDS011;6608;48.790;9.198;2023-04-03T14:20:13;127.03;;;57.20;;
13083;SDS011;6608;48.790;9.198;2023-04-03T14:22:40;128.30;;;57.67;;
13083;SDS011;6608;48.790;9.198;2023-04-03T14:25:06;128.10;;;57.50;;
13083;SDS011;6608;48.790;9.198;2023-04-03T14:27:34;124.40;;;56.63;;
13083;SDS011;6608;48.790;9.198;2023-04-03T14:30:00;128.70;;;58.87;;
13083;SDS011;6608;48.790;9.198;2023-04-03T14:32:28;125.73;;;57.00;;
13083;SDS011;6608;48.790;9.198;2023-04-03T14:34:55;132.30;;;60.37;;
13083;SDS011;6608;48.790;9.198;2023-04-03T14:37:25;153.43;;;74.07;;
13083;SDS011;6608;48.790;9.198;2023-04-03T14:39:52;123.13;;;56.03;;
13083;SDS011;6608;48.790;9.198;2023-04-03T14:42:20;127.53;;;57.20;;